Terminal Aerodrome Forecast
Issued by NWS

Home | Current Version | Previous Version | Text Only | Print | Product List | Glossary On
Versions: 1 2 3 4 5 6 7 8 9 10 11 12 13 14 15 16 17 18 19
000
FTUS44 KLZK 242204 AAA
TAFLIT
TAF AMD
KLIT 242204Z 2422/2518 17017G28KT P6SM SCT045 BKN060
      TEMPO 2423/2503 4SM TSRA BR OVC025CB
     FM250300 17012G22KT 4SM -TSRA BR BKN025CB
      TEMPO 2503/2506 VRB15G35KT 1SM +TSRA BR OVC015CB
     FM250600 19010G20KT P6SM VCTS SCT020CB OVC050
     FM251300 22012G18KT P6SM BKN050 OVC120=

USA.gov is the U.S. government's official web portal to all federal, state and local government web resources and services.